KRCR

Fulton County Airport

Rochester, Indiana, USA
METAR KRCR 201735Z AUTO 29018G28KT 10SM SCT065 SCT070 14/00 A2980 RMK AO2
Observed Flight Rules
Oct-20 @ 17:35 UTC (28 minutes ago) Visual Flight Rules
Wind Visibility Clouds
290° at 18 knots
 Gusting to 28 knots
10 miles
  • Scattered at 6,500' AGL
  • Scattered at 7,000' AGL
Temperatures Readings
Current 14°C / 57°F
Dewpoint 0°C / 32°F
Humidity 39%
Altimeter 29.8" Hg
Pressure 1009 hPa
Elevation 241
METAR KRCR 201735Z AUTO 29018G28KT 10SM SCT065 SCT070 14/00 A2980 RMK AO2
Observed Flight Rules
Oct-20 @ 17:35 UTC
(28 minutes ago)
VFR
Wind Visibility
290° at 18 knots
 Gusting to 28 knots
10 miles
Clouds
  • Scattered at 6,500' AGL
  • Scattered at 7,000' AGL
Temperature Dewpoint
14°C / 57°F 0°C / 32°F
Humidity Altimeter Pressure
39% 29.8" Hg 1009 hPa